createdAt,value
2024-01-20T00:00:04.082Z,101258.75
2024-01-20T00:01:09.090Z,101259.59
2024-01-20T00:02:13.923Z,101260.50
2024-01-20T00:03:18.310Z,101258.72
2024-01-20T00:04:21.392Z,101261.28
2024-01-20T00:05:24.767Z,101265.56
2024-01-20T00:06:28.249Z,101260.41
2024-01-20T00:07:31.645Z,101268.13
2024-01-20T00:08:34.581Z,101270.69
2024-01-20T00:09:46.037Z,101275.88
2024-01-20T00:10:53.553Z,101262.09
2024-01-20T00:11:56.559Z,101277.53
2024-01-20T00:12:59.901Z,101279.25
2024-01-20T00:14:03.201Z,101279.25
2024-01-20T00:15:07.653Z,101232.72
2024-01-20T00:16:10.578Z,101284.41
2024-01-20T00:17:21.479Z,101282.69
2024-01-20T00:18:29.371Z,101282.66
2024-01-20T00:19:32.429Z,101286.94
2024-01-20T00:20:35.482Z,101277.44
2024-01-20T00:21:39.392Z,101283.38
2024-01-20T00:22:42.351Z,101254.06
2024-01-20T00:23:46.386Z,101287.66
2024-01-20T00:24:50.016Z,101291.91
2024-01-20T00:25:53.152Z,101282.47
2024-01-20T00:26:56.153Z,101290.19
2024-01-20T00:27:59.095Z,101293.63
2024-01-20T00:29:02.506Z,101296.19
2024-01-20T00:30:06.166Z,101303.94
2024-01-20T00:31:09.153Z,101303.97
2024-01-20T00:32:13.370Z,101302.25
2024-01-20T00:33:16.544Z,101303.94
2024-01-20T00:34:19.850Z,101300.50
2024-01-20T00:35:23.074Z,101304.78
2024-01-20T00:36:25.990Z,101309.91
2024-01-20T00:37:28.671Z,101309.91
2024-01-20T00:38:32.295Z,101311.56
2024-01-20T00:39:35.219Z,101311.53
2024-01-20T00:40:37.875Z,101307.28
2024-01-20T00:41:40.844Z,101311.53
2024-01-20T00:42:43.764Z,101315.78
2024-01-20T00:43:46.717Z,101303.75
2024-01-20T00:44:50.073Z,101319.25
2024-01-20T00:45:52.772Z,101320.97
2024-01-20T00:46:55.369Z,101318.41
2024-01-20T00:47:58.030Z,101320.09
2024-01-20T00:49:00.888Z,101317.56
2024-01-20T00:50:05.881Z,101321.03
2024-01-20T00:51:08.700Z,101311.59
2024-01-20T00:52:12.068Z,101326.19
2024-01-20T00:53:15.013Z,101319.31
2024-01-20T00:54:18.031Z,101332.16
2024-01-20T00:55:21.387Z,101330.41
2024-01-20T00:56:24.252Z,101300.19
2024-01-20T00:57:27.216Z,101339.03
2024-01-20T00:58:30.220Z,101337.31
2024-01-20T00:59:33.078Z,101329.56
2024-01-20T01:00:36.292Z,101338.97
2024-01-20T01:01:39.107Z,101345.87
2024-01-20T01:02:42.533Z,101350.16
2024-01-20T01:03:45.527Z,101347.62
2024-01-20T01:04:48.606Z,101347.62
2024-01-20T01:05:52.285Z,101347.62
2024-01-20T01:06:55.217Z,101356.19
2024-01-20T01:07:58.070Z,101352.75
2024-01-20T01:09:01.020Z,101351.06
2024-01-20T01:10:05.127Z,101345.97
2024-01-20T01:11:08.440Z,101351.13
2024-01-20T01:12:11.460Z,101358.84
2024-01-20T01:13:14.910Z,101349.31
2024-01-20T01:14:17.673Z,101344.16
2024-01-20T01:15:20.362Z,101355.34
2024-01-20T01:16:23.561Z,101355.31
2024-01-20T01:17:26.560Z,101355.34
2024-01-20T01:18:29.616Z,101357.03
2024-01-20T01:19:32.471Z,101357.81
2024-01-20T01:20:35.350Z,101335.41
2024-01-20T01:21:38.640Z,101344.00
2024-01-20T01:22:41.982Z,101362.09
2024-01-20T01:23:44.894Z,101364.72
2024-01-20T01:24:47.744Z,101358.69
2024-01-20T01:25:50.890Z,101355.25
2024-01-20T01:26:54.109Z,101344.84
2024-01-20T01:27:56.807Z,101362.94
2024-01-20T01:28:59.781Z,101361.19
2024-01-20T01:30:02.699Z,101362.91
2024-01-20T01:31:05.660Z,101362.00
2024-01-20T01:32:08.935Z,101362.09
2024-01-20T01:33:11.682Z,101364.72
2024-01-20T01:34:16.069Z,101369.00
2024-01-20T01:35:18.985Z,101371.56
2024-01-20T01:36:21.791Z,101374.12
2024-01-20T01:37:25.157Z,101357.78
2024-01-20T01:38:27.722Z,101353.41
2024-01-20T01:39:30.609Z,101372.31
2024-01-20T01:40:33.528Z,101377.41
2024-01-20T01:41:36.639Z,101369.66
2024-01-20T01:42:40.234Z,101374.81
2024-01-20T01:43:43.070Z,101379.16
2024-01-20T01:44:46.573Z,101383.44
2024-01-20T01:45:49.624Z,101387.72
2024-01-20T01:46:52.806Z,101386.88
2024-01-20T01:47:56.823Z,101377.34
2024-01-20T01:49:00.045Z,101389.47
2024-01-20T01:50:03.479Z,101392.00
2024-01-20T01:51:07.126Z,101383.31
2024-01-20T01:52:10.166Z,101382.50
2024-01-20T01:53:14.936Z,101395.41
2024-01-20T01:54:19.732Z,101403.13
2024-01-20T01:55:25.129Z,101403.06
2024-01-20T01:56:28.894Z,101409.09
2024-01-20T01:57:32.305Z,101397.06
2024-01-20T01:58:35.540Z,101404.78
2024-01-20T01:59:38.667Z,101401.31
2024-01-20T02:00:41.686Z,101401.28
2024-01-20T02:01:44.743Z,101403.00
2024-01-20T02:02:47.707Z,101405.53
2024-01-20T02:03:51.350Z,101401.25
2024-01-20T02:04:54.073Z,101410.63
2024-01-20T02:05:57.130Z,101407.22
2024-01-20T02:07:00.341Z,101410.66
2024-01-20T02:08:03.710Z,101407.25
2024-01-20T02:09:07.375Z,101413.28
2024-01-20T02:10:12.092Z,101389.13
2024-01-20T02:11:17.338Z,101414.09
2024-01-20T02:12:21.053Z,101414.09
2024-01-20T02:13:23.804Z,101419.25
2024-01-20T02:14:27.056Z,101411.53
2024-01-20T02:15:31.084Z,101413.28
2024-01-20T02:16:34.014Z,101418.56
2024-01-20T02:17:37.077Z,101418.56
2024-01-20T02:18:39.814Z,101418.56
2024-01-20T02:19:43.132Z,101418.56
2024-01-20T02:20:46.125Z,101421.97
2024-01-20T02:21:48.797Z,101415.84
2024-01-20T02:22:52.049Z,101418.31
2024-01-20T02:23:55.657Z,101426.81
2024-01-20T02:24:58.660Z,101403.47
2024-01-20T02:26:01.610Z,101366.25
2024-01-20T02:27:04.587Z,101431.72
2024-01-20T02:28:07.489Z,101377.34
2024-01-20T02:29:10.161Z,101423.16
2024-01-20T02:30:13.366Z,101420.63
2024-01-20T02:31:16.267Z,101411.09
2024-01-20T02:32:19.022Z,101428.38
2024-01-20T02:33:21.802Z,101430.03
2024-01-20T02:34:24.902Z,101424.94
2024-01-20T02:35:27.807Z,101426.69
2024-01-20T02:36:30.543Z,101424.13
2024-01-20T02:37:33.297Z,101435.34
2024-01-20T02:38:36.195Z,101429.25
2024-01-20T02:39:39.022Z,101437.88
2024-01-20T02:40:42.239Z,101437.00
2024-01-20T02:41:45.175Z,101442.12
2024-01-20T02:42:48.295Z,101442.00
2024-01-20T02:43:51.166Z,101438.53
2024-01-20T02:44:54.005Z,101444.53
2024-01-20T02:45:57.260Z,101445.47
2024-01-20T02:47:00.157Z,101442.00
2024-01-20T02:48:03.059Z,101438.44
2024-01-20T02:49:06.449Z,101443.59
2024-01-20T02:50:09.725Z,101454.63
2024-01-20T02:51:13.388Z,101445.09
2024-01-20T02:52:16.131Z,101441.62
2024-01-20T02:53:18.953Z,101452.94
2024-01-20T02:54:21.854Z,101455.44
2024-01-20T02:55:24.601Z,101457.22
2024-01-20T02:56:27.635Z,101456.31
2024-01-20T02:57:31.871Z,101452.03
2024-01-20T02:58:34.906Z,101452.88
2024-01-20T02:59:37.858Z,101452.12
2024-01-20T03:00:40.791Z,101461.56
2024-01-20T03:01:44.094Z,101455.62
2024-01-20T03:02:46.773Z,101463.38
2024-01-20T03:03:49.508Z,101463.44
2024-01-20T03:04:52.610Z,101460.06
2024-01-20T03:05:55.721Z,101461.84
2024-01-20T03:06:58.726Z,101461.78
2024-01-20T03:08:01.588Z,101467.72
2024-01-20T03:09:04.228Z,101465.97
2024-01-20T03:10:07.683Z,101466.03
2024-01-20T03:11:10.348Z,101474.63
2024-01-20T03:12:13.378Z,101477.16
2024-01-20T03:13:16.141Z,101475.41
2024-01-20T03:14:19.199Z,101480.38
2024-01-20T03:15:21.937Z,101476.81
2024-01-20T03:16:24.912Z,101479.25
2024-01-20T03:17:27.844Z,101486.19
2024-01-20T03:18:30.783Z,101475.06
2024-01-20T03:19:33.940Z,101468.13
2024-01-20T03:20:36.869Z,101480.31
2024-01-20T03:21:39.730Z,101473.47
2024-01-20T03:22:43.056Z,101482.91
2024-01-20T03:23:46.033Z,101477.75
2024-01-20T03:24:49.245Z,101464.88
2024-01-20T03:25:52.251Z,101466.47
2024-01-20T03:26:58.807Z,101480.31
2024-01-20T03:28:03.522Z,101479.47
2024-01-20T03:29:06.623Z,101478.56
2024-01-20T03:30:09.750Z,101477.75
2024-01-20T03:31:12.964Z,101437.19
2024-01-20T03:32:17.058Z,101476.94
2024-01-20T03:33:20.492Z,101481.22
2024-01-20T03:34:24.155Z,101483.75
2024-01-20T03:35:27.126Z,101484.56
2024-01-20T03:36:29.803Z,101488.03
2024-01-20T03:37:32.491Z,101486.28
2024-01-20T03:38:35.414Z,101485.41
2024-01-20T03:39:38.372Z,101488.84
2024-01-20T03:40:46.287Z,101484.53
2024-01-20T03:41:49.224Z,101489.75
2024-01-20T03:42:52.217Z,101485.41
2024-01-20T03:43:57.155Z,101488.88
2024-01-20T03:44:59.868Z,101492.28
2024-01-20T03:46:02.511Z,101489.62
2024-01-20T03:47:05.489Z,101493.84
2024-01-20T03:48:08.319Z,101487.72
2024-01-20T03:49:11.531Z,101473.78
2024-01-20T03:50:14.674Z,101486.69
2024-01-20T03:51:17.645Z,101488.41
2024-01-20T03:52:20.275Z,101485.84
2024-01-20T03:53:22.866Z,101488.41
2024-01-20T03:54:29.343Z,101485.88
2024-01-20T03:55:32.405Z,101442.56
2024-01-20T03:56:41.738Z,101490.19
2024-01-20T03:57:44.574Z,101485.06
2024-01-20T03:58:47.472Z,101491.94
2024-01-20T03:59:50.722Z,101437.53
2024-01-20T04:00:53.402Z,101491.94
2024-01-20T04:01:56.573Z,101476.41
2024-01-20T04:02:59.490Z,101489.44
2024-01-20T04:04:02.535Z,101494.56
2024-01-20T04:05:05.960Z,101493.72
2024-01-20T04:06:09.210Z,101494.47
2024-01-20T04:07:12.416Z,101497.09
2024-01-20T04:08:16.656Z,101498.00
2024-01-20T04:09:21.162Z,101458.22
2024-01-20T04:10:24.334Z,101428.84
2024-01-20T04:11:27.238Z,101476.25
2024-01-20T04:12:37.478Z,101505.56
2024-01-20T04:13:43.221Z,101496.84
2024-01-20T04:14:46.740Z,101505.97
2024-01-20T04:15:50.357Z,101508.97
2024-01-20T04:16:53.313Z,101512.41
2024-01-20T04:17:56.621Z,101470.13
2024-01-20T04:19:00.011Z,101513.31
2024-01-20T04:20:05.677Z,101510.72
2024-01-20T04:21:12.715Z,101512.56
2024-01-20T04:22:16.232Z,101512.44
2024-01-20T04:23:19.435Z,101512.59
2024-01-20T04:24:24.949Z,101429.84
2024-01-20T04:25:28.381Z,101512.84
2024-01-20T04:26:33.939Z,101517.12
2024-01-20T04:27:41.766Z,101518.84
2024-01-20T04:28:45.279Z,101516.25
2024-01-20T04:29:51.103Z,101501.59
2024-01-20T04:30:54.489Z,101515.47
2024-01-20T04:31:57.332Z,101522.28
2024-01-20T04:32:59.980Z,101521.41
2024-01-20T04:34:03.409Z,101518.84
2024-01-20T04:35:07.690Z,101524.03
2024-01-20T04:36:10.592Z,101522.31
2024-01-20T04:37:13.503Z,101529.22
2024-01-20T04:38:16.341Z,101474.81
2024-01-20T04:39:19.625Z,101524.94
2024-01-20T04:40:22.322Z,101502.47
2024-01-20T04:41:25.197Z,101508.44
2024-01-20T04:42:28.173Z,101523.94
2024-01-20T04:43:31.119Z,101529.88
2024-01-20T04:44:34.066Z,101528.94
2024-01-20T04:45:37.192Z,101523.78
2024-01-20T04:46:39.934Z,101528.81
2024-01-20T04:47:42.815Z,101527.91
2024-01-20T04:48:45.616Z,101529.66
2024-01-20T04:49:52.706Z,101532.75
2024-01-20T04:50:55.669Z,101526.22
2024-01-20T04:52:03.024Z,101528.91
2024-01-20T04:53:05.955Z,101532.37
2024-01-20T04:54:08.808Z,101525.59
2024-01-20T04:55:12.105Z,101538.47
2024-01-20T04:56:14.764Z,101536.72
2024-01-20T04:57:17.482Z,101542.63
2024-01-20T04:58:20.425Z,101536.59
2024-01-20T04:59:23.046Z,101534.03
2024-01-20T05:00:26.253Z,101539.22
2024-01-20T05:01:28.903Z,101525.44
2024-01-20T05:02:31.738Z,101542.59
2024-01-20T05:03:34.549Z,101548.69
2024-01-20T05:04:37.770Z,101546.16
2024-01-20T05:05:41.047Z,101545.31
2024-01-20T05:06:46.881Z,101551.34
2024-01-20T05:07:49.912Z,101533.22
2024-01-20T05:08:52.831Z,101552.28
2024-01-20T05:09:55.775Z,101549.69
2024-01-20T05:10:59.074Z,101554.88
2024-01-20T05:12:02.059Z,101528.16
2024-01-20T05:13:05.453Z,101554.94
2024-01-20T05:14:09.310Z,101547.12
2024-01-20T05:15:13.177Z,101555.00
2024-01-20T05:16:17.207Z,101540.34
2024-01-20T05:17:19.833Z,101558.41
2024-01-20T05:18:23.162Z,101535.03
2024-01-20T05:19:26.125Z,101564.41
2024-01-20T05:20:29.113Z,101561.81
2024-01-20T05:21:32.264Z,101563.53
2024-01-20T05:22:35.208Z,101572.97
2024-01-20T05:23:38.053Z,101566.91
2024-01-20T05:24:41.035Z,101573.72
2024-01-20T05:25:43.661Z,101576.22
2024-01-20T05:26:46.761Z,101578.75
2024-01-20T05:27:49.648Z,101576.16
2024-01-20T05:28:52.323Z,101575.31
2024-01-20T05:29:55.213Z,101581.12
2024-01-20T05:30:57.817Z,101575.97
2024-01-20T05:32:00.756Z,101576.84
2024-01-20T05:33:03.822Z,101515.31
2024-01-20T05:34:06.836Z,101587.97
2024-01-20T05:35:09.892Z,101525.72
2024-01-20T05:36:14.033Z,101593.13
2024-01-20T05:37:17.277Z,101603.31
2024-01-20T05:38:20.307Z,101596.31
2024-01-20T05:39:23.294Z,101601.44
2024-01-20T05:40:26.274Z,101595.38
2024-01-20T05:41:29.105Z,101589.34
2024-01-20T05:42:33.096Z,101590.25
2024-01-20T05:43:35.890Z,101592.94
2024-01-20T05:44:38.490Z,101593.84
2024-01-20T05:45:41.186Z,101598.12
2024-01-20T05:46:44.119Z,101599.03
2024-01-20T05:47:47.347Z,101603.37
2024-01-20T05:48:50.381Z,101604.22
2024-01-20T05:49:53.541Z,101600.00
2024-01-20T05:50:56.586Z,101606.81
2024-01-20T05:51:59.195Z,101612.84
2024-01-20T05:53:02.811Z,101581.66
2024-01-20T05:54:08.366Z,101613.59
2024-01-20T05:55:11.293Z,101619.56
2024-01-20T05:56:15.511Z,101618.72
2024-01-20T05:57:19.596Z,101621.22
2024-01-20T05:58:22.562Z,101625.44
2024-01-20T05:59:25.581Z,101622.75
2024-01-20T06:00:28.741Z,101620.19
2024-01-20T06:01:31.749Z,101623.66
2024-01-20T06:02:34.385Z,101609.81
2024-01-20T06:03:37.492Z,101632.91
2024-01-20T06:04:40.589Z,101632.91
2024-01-20T06:05:43.339Z,101635.53
2024-01-20T06:06:47.468Z,101629.66
2024-01-20T06:07:50.410Z,101639.94
2024-01-20T06:08:53.884Z,101644.91
2024-01-20T06:09:56.810Z,101641.56
2024-01-20T06:10:59.871Z,101638.16
2024-01-20T06:12:03.174Z,101640.72
2024-01-20T06:13:05.886Z,101639.00
2024-01-20T06:14:09.293Z,101644.19
2024-01-20T06:15:12.591Z,101644.13
2024-01-20T06:16:15.542Z,101637.41
2024-01-20T06:17:18.496Z,101638.28
2024-01-20T06:18:21.448Z,101640.84
2024-01-20T06:19:26.045Z,101634.00
2024-01-20T06:20:29.194Z,101640.03
2024-01-20T06:21:32.148Z,101599.37
2024-01-20T06:22:35.370Z,101615.63
2024-01-20T06:23:38.306Z,101640.88
2024-01-20T06:24:41.261Z,101657.06
2024-01-20T06:25:44.163Z,101659.59
2024-01-20T06:26:47.379Z,101657.94
2024-01-20T06:27:52.806Z,101662.34
2024-01-20T06:28:55.798Z,101662.38
2024-01-20T06:29:58.485Z,101655.50
2024-01-20T06:31:01.729Z,101663.13
2024-01-20T06:32:04.881Z,101671.63
2024-01-20T06:33:08.205Z,101658.72
2024-01-20T06:34:11.105Z,101676.63
2024-01-20T06:35:14.082Z,101678.34
2024-01-20T06:36:17.021Z,101659.28
2024-01-20T06:37:19.903Z,101675.69
2024-01-20T06:38:23.173Z,101681.59
2024-01-20T06:39:25.760Z,101680.72
2024-01-20T06:40:28.395Z,101685.78
2024-01-20T06:41:31.462Z,101681.37
2024-01-20T06:42:34.397Z,101679.00
2024-01-20T06:43:37.738Z,101673.87
2024-01-20T06:44:40.653Z,101680.09
2024-01-20T06:45:43.759Z,101664.53
2024-01-20T06:46:46.460Z,101679.38
2024-01-20T06:47:49.483Z,101621.47
2024-01-20T06:48:52.788Z,101685.56
2024-01-20T06:49:55.729Z,101674.37
2024-01-20T06:51:00.455Z,101642.28
2024-01-20T06:52:03.527Z,101693.38
2024-01-20T06:53:06.441Z,101684.69
2024-01-20T06:54:10.041Z,101676.97
2024-01-20T06:55:13.221Z,101687.19
2024-01-20T06:56:16.204Z,101698.50
2024-01-20T06:57:19.299Z,101699.19
2024-01-20T06:58:22.954Z,101707.53
2024-01-20T06:59:26.167Z,101705.97
2024-01-20T07:00:28.876Z,101699.13
2024-01-20T07:01:32.281Z,101710.47
2024-01-20T07:02:36.009Z,101708.09
2024-01-20T07:03:38.772Z,101707.34
2024-01-20T07:04:42.105Z,101712.53
2024-01-20T07:05:45.070Z,101709.13
2024-01-20T07:06:52.266Z,101709.13
2024-01-20T07:07:55.067Z,101716.84
2024-01-20T07:08:58.056Z,101708.03
2024-01-20T07:10:01.098Z,101716.94
2024-01-20T07:11:08.968Z,101713.69
2024-01-20T07:12:12.172Z,101718.03
2024-01-20T07:13:14.854Z,101719.66
2024-01-20T07:14:18.449Z,101719.78
2024-01-20T07:15:21.707Z,101724.06
2024-01-20T07:16:24.703Z,101713.56
2024-01-20T07:17:27.523Z,101720.59
2024-01-20T07:18:30.547Z,101733.50
2024-01-20T07:19:33.311Z,101731.84
2024-01-20T07:20:36.463Z,101735.41
2024-01-20T07:21:39.357Z,101739.72
2024-01-20T07:22:42.841Z,101715.41
2024-01-20T07:23:45.775Z,101726.59
2024-01-20T07:24:48.740Z,101739.66
2024-01-20T07:25:52.032Z,101708.72
2024-01-20T07:26:55.730Z,101743.34
2024-01-20T07:27:58.596Z,101726.00
2024-01-20T07:29:01.560Z,101736.34
2024-01-20T07:30:06.296Z,101727.78
2024-01-20T07:31:09.597Z,101732.97
2024-01-20T07:32:12.466Z,101733.84
2024-01-20T07:33:15.354Z,101729.75
2024-01-20T07:34:18.274Z,101735.06
2024-01-20T07:35:21.383Z,101731.50
2024-01-20T07:36:24.612Z,101736.81
2024-01-20T07:37:27.266Z,101740.28
2024-01-20T07:38:29.916Z,101725.56
2024-01-20T07:39:32.989Z,101731.72
2024-01-20T07:40:35.681Z,101737.03
2024-01-20T07:41:38.821Z,101748.06
2024-01-20T07:42:41.602Z,101749.78
2024-01-20T07:43:45.174Z,101742.06
2024-01-20T07:44:48.154Z,101742.97
2024-01-20T07:45:55.314Z,101752.34
2024-01-20T07:46:58.234Z,101755.13
2024-01-20T07:48:01.425Z,101757.78
2024-01-20T07:49:04.440Z,101761.41
2024-01-20T07:50:07.836Z,101759.59
2024-01-20T07:51:10.735Z,101761.22
2024-01-20T07:52:13.684Z,101749.28
2024-01-20T07:53:16.589Z,101628.78
2024-01-20T07:54:19.528Z,101761.50
2024-01-20T07:55:22.555Z,101756.47
2024-01-20T07:56:25.744Z,101758.28
2024-01-20T07:57:28.679Z,101760.94
2024-01-20T07:58:31.663Z,101759.94
2024-01-20T07:59:34.574Z,101761.03
2024-01-20T08:00:37.485Z,101760.00
2024-01-20T08:01:40.825Z,101757.56
2024-01-20T08:02:43.435Z,101759.31
2024-01-20T08:03:46.697Z,101753.31
2024-01-20T08:04:49.733Z,101755.13
2024-01-20T08:05:54.797Z,101752.63
2024-01-20T08:06:58.123Z,101752.75
2024-01-20T08:08:00.810Z,101757.00
2024-01-20T08:09:03.695Z,101764.00
2024-01-20T08:10:06.914Z,101763.97
2024-01-20T08:11:09.855Z,101758.69
2024-01-20T08:12:13.199Z,101771.63
2024-01-20T08:13:16.623Z,101767.47
2024-01-20T08:14:19.215Z,101753.62
2024-01-20T08:15:23.783Z,101758.91
2024-01-20T08:16:29.603Z,101773.56
2024-01-20T08:17:33.061Z,101766.81
2024-01-20T08:18:36.213Z,101752.97
2024-01-20T08:19:39.449Z,101774.47
2024-01-20T08:20:42.120Z,101778.59
2024-01-20T08:21:44.777Z,101767.25
2024-01-20T08:22:48.176Z,101771.59
2024-01-20T08:23:51.128Z,101784.59
2024-01-20T08:24:53.999Z,101780.47
2024-01-20T08:25:57.981Z,101784.94
2024-01-20T08:27:00.848Z,101787.41
2024-01-20T08:28:04.147Z,101786.59
2024-01-20T08:29:07.057Z,101794.38
2024-01-20T08:30:10.483Z,101791.91
2024-01-20T08:31:16.282Z,101793.47
2024-01-20T08:32:19.022Z,101796.00
2024-01-20T08:33:23.888Z,101790.03
2024-01-20T08:34:29.390Z,101797.69
2024-01-20T08:35:32.097Z,101798.56
2024-01-20T08:36:35.186Z,101800.22
2024-01-20T08:37:41.683Z,101802.91
2024-01-20T08:38:45.003Z,101802.34
2024-01-20T08:39:48.550Z,101799.84
2024-01-20T08:40:52.441Z,101786.03
2024-01-20T08:41:56.631Z,101804.13
2024-01-20T08:42:59.453Z,101805.59
2024-01-20T08:44:02.850Z,101805.59
2024-01-20T08:45:06.129Z,101813.34
2024-01-20T08:46:10.137Z,101809.09
2024-01-20T08:47:13.293Z,101791.88
2024-01-20T08:48:16.009Z,101809.31
2024-01-20T08:49:19.109Z,101812.78
2024-01-20T08:50:24.978Z,101813.66
2024-01-20T08:51:30.182Z,101816.22
2024-01-20T08:52:39.976Z,101814.69
2024-01-20T08:53:42.992Z,101710.12
2024-01-20T08:55:09.694Z,101811.41
2024-01-20T08:56:12.622Z,101812.19
2024-01-20T08:57:15.717Z,101813.81
2024-01-20T08:58:18.659Z,101816.56
2024-01-20T08:59:21.372Z,101820.97
2024-01-20T09:00:24.968Z,101822.78
2024-01-20T09:01:27.596Z,101815.78
2024-01-20T09:02:30.438Z,101812.47
2024-01-20T09:03:33.520Z,101800.44
2024-01-20T09:04:36.541Z,101812.53
2024-01-20T09:05:40.346Z,101811.66
2024-01-20T09:06:43.168Z,101809.94
2024-01-20T09:07:46.041Z,101816.09
2024-01-20T09:08:48.896Z,101814.38
2024-01-20T09:09:53.650Z,101828.09
2024-01-20T09:10:57.716Z,101819.53
2024-01-20T09:12:00.622Z,101823.81
2024-01-20T09:13:04.602Z,101822.97
2024-01-20T09:14:07.630Z,101820.41
2024-01-20T09:15:14.266Z,101818.78
2024-01-20T09:16:19.228Z,101824.00
2024-01-20T09:17:22.284Z,101825.66
2024-01-20T09:18:25.543Z,101830.84
2024-01-20T09:19:28.323Z,101813.69
2024-01-20T09:20:32.943Z,101825.78
2024-01-20T09:21:36.326Z,101827.63
2024-01-20T09:22:39.311Z,101827.59
2024-01-20T09:23:42.239Z,101829.94
2024-01-20T09:24:47.090Z,101836.78
2024-01-20T09:25:50.111Z,101842.91
2024-01-20T09:26:53.218Z,101835.22
2024-01-20T09:27:56.213Z,101836.03
2024-01-20T09:28:59.096Z,101843.87
2024-01-20T09:30:02.014Z,101843.84
2024-01-20T09:31:05.192Z,101832.56
2024-01-20T09:32:12.447Z,101834.50
2024-01-20T09:33:15.531Z,101837.06
2024-01-20T09:34:22.148Z,101827.56
2024-01-20T09:35:26.659Z,101832.88
2024-01-20T09:36:29.290Z,101830.31
2024-01-20T09:37:32.425Z,101831.16
2024-01-20T09:38:35.460Z,101814.94
2024-01-20T09:39:38.462Z,101834.88
2024-01-20T09:40:41.587Z,101833.25
2024-01-20T09:41:44.591Z,101842.03
2024-01-20T09:42:49.450Z,101835.25
2024-01-20T09:43:53.131Z,101835.47
2024-01-20T09:44:56.554Z,101836.38
2024-01-20T09:45:59.490Z,101833.78
2024-01-20T09:47:02.374Z,101826.03
2024-01-20T09:48:07.901Z,101834.50
2024-01-20T09:49:10.657Z,101825.91
2024-01-20T09:50:13.333Z,101837.09
2024-01-20T09:51:16.405Z,101825.03
2024-01-20T09:52:27.480Z,101827.66
2024-01-20T09:53:31.753Z,101829.47
2024-01-20T09:54:43.264Z,101829.47
2024-01-20T09:55:47.194Z,101827.56
2024-01-20T09:56:50.222Z,101821.34
2024-01-20T09:57:55.224Z,101817.09
2024-01-20T09:59:01.297Z,101815.72
2024-01-20T10:00:06.063Z,101812.16
2024-01-20T10:01:14.313Z,101791.12
2024-01-20T10:02:19.393Z,101760.16
2024-01-20T10:03:26.442Z,101787.59
2024-01-20T10:04:30.803Z,101795.44
2024-01-20T10:05:34.904Z,101792.84
2024-01-20T10:06:37.695Z,101798.53
2024-01-20T10:07:41.350Z,101802.59
2024-01-20T10:08:44.106Z,101798.44
2024-01-20T10:09:47.184Z,101808.38
2024-01-20T10:10:50.416Z,101814.66
2024-01-20T10:11:53.250Z,101818.56
2024-01-20T10:12:56.822Z,101813.78
2024-01-20T10:14:02.244Z,101812.75
2024-01-20T10:15:05.577Z,101813.13
2024-01-20T10:16:08.689Z,101826.09
2024-01-20T10:17:11.578Z,101825.25
2024-01-20T10:18:14.792Z,101817.31
2024-01-20T10:19:17.705Z,101814.34
2024-01-20T10:20:28.532Z,101818.47
2024-01-20T10:21:39.485Z,101816.78
2024-01-20T10:22:42.722Z,101807.81
2024-01-20T10:23:46.994Z,101824.03
2024-01-20T10:24:51.014Z,101821.66
2024-01-20T10:26:07.354Z,101816.94
2024-01-20T10:27:16.180Z,101812.75
2024-01-20T10:28:18.810Z,101817.81
2024-01-20T10:29:22.129Z,101777.00
2024-01-20T10:30:26.374Z,101809.31
2024-01-20T10:31:32.755Z,101808.25
2024-01-20T10:32:53.204Z,101801.47
2024-01-20T10:33:58.757Z,101804.28
2024-01-20T10:35:02.258Z,101807.19
2024-01-20T10:36:05.628Z,101809.13
2024-01-20T10:37:13.574Z,101809.66
2024-01-20T10:38:22.662Z,101802.87
2024-01-20T10:39:27.568Z,101802.81
2024-01-20T10:40:30.699Z,101805.41
2024-01-20T10:41:38.594Z,101802.16
2024-01-20T10:42:47.606Z,101795.84
2024-01-20T10:43:59.706Z,101799.09
2024-01-20T10:45:10.505Z,101780.91
2024-01-20T10:46:25.347Z,101796.56
2024-01-20T10:47:40.372Z,101801.38
2024-01-20T10:48:48.085Z,101796.00
2024-01-20T10:49:51.254Z,101764.84
2024-01-20T10:51:01.128Z,101799.19
2024-01-20T10:52:04.542Z,101798.00
2024-01-20T10:53:08.909Z,101796.00
2024-01-20T10:54:13.562Z,101795.78
2024-01-20T10:55:16.592Z,101801.41
2024-01-20T10:56:20.501Z,101799.66
2024-01-20T10:57:23.864Z,101796.50
2024-01-20T10:58:34.215Z,101806.25
2024-01-20T10:59:42.104Z,101794.56
2024-01-20T11:00:46.052Z,101797.78
2024-01-20T11:01:49.666Z,101765.34
2024-01-20T11:02:52.951Z,101786.78
2024-01-20T11:03:57.165Z,101780.38
2024-01-20T11:05:00.062Z,101789.06
2024-01-20T11:06:04.267Z,101776.50
2024-01-20T11:07:09.942Z,101785.13
2024-01-20T11:08:13.218Z,101780.28
2024-01-20T11:09:25.712Z,101776.81
2024-01-20T11:10:29.309Z,101745.34
2024-01-20T11:11:36.565Z,101770.69
2024-01-20T11:12:39.854Z,101774.00
2024-01-20T11:13:47.152Z,101768.75
2024-01-20T11:14:54.776Z,101766.00
2024-01-20T11:15:59.198Z,101764.97
2024-01-20T11:17:15.786Z,101761.38
2024-01-20T11:18:19.732Z,101763.88
2024-01-20T11:19:23.487Z,101761.12
2024-01-20T11:20:26.799Z,101757.66
2024-01-20T11:21:29.646Z,101764.22
2024-01-20T11:22:35.518Z,101760.00
2024-01-20T11:23:38.137Z,101755.81
2024-01-20T11:24:43.484Z,101754.06
2024-01-20T11:25:46.429Z,101744.44
2024-01-20T11:26:49.411Z,101749.31
2024-01-20T11:27:53.266Z,101742.72
2024-01-20T11:28:59.771Z,101755.81
2024-01-20T11:30:09.518Z,101748.37
2024-01-20T11:31:21.956Z,101760.06
2024-01-20T11:32:24.725Z,101753.69
2024-01-20T11:33:28.209Z,101755.59
2024-01-20T11:34:31.155Z,101756.78
2024-01-20T11:35:37.947Z,101757.28
2024-01-20T11:36:40.654Z,101739.13
2024-01-20T11:37:43.898Z,101754.56
2024-01-20T11:38:46.970Z,101743.69
2024-01-20T11:39:49.815Z,101760.19
2024-01-20T11:41:02.961Z,101756.00
2024-01-20T11:42:07.599Z,101741.66
2024-01-20T11:43:14.829Z,101757.53
2024-01-20T11:44:21.549Z,101760.09
2024-01-20T11:45:24.472Z,101762.78
2024-01-20T11:46:30.389Z,101750.88
2024-01-20T11:47:33.766Z,101748.97
2024-01-20T11:48:36.694Z,101731.53
2024-01-20T11:49:40.237Z,101756.41
2024-01-20T11:50:42.959Z,101761.25
2024-01-20T11:51:46.200Z,101756.16
2024-01-20T11:52:49.313Z,101754.84
2024-01-20T11:53:58.960Z,101735.03
2024-01-20T11:55:16.582Z,101728.66
2024-01-20T11:56:36.316Z,101745.34
2024-01-20T11:57:40.279Z,101743.00
2024-01-20T11:58:43.778Z,101749.19
2024-01-20T11:59:46.414Z,101747.16
2024-01-20T12:00:51.523Z,101746.91
2024-01-20T12:01:57.334Z,101719.56
2024-01-20T12:03:01.854Z,101744.88
2024-01-20T12:04:05.021Z,101747.97
2024-01-20T12:05:15.941Z,101747.66
2024-01-20T12:06:21.828Z,101730.41
2024-01-20T12:07:25.031Z,101746.69
2024-01-20T12:08:28.493Z,101750.75